Renner Field-Goodland Municipal Airport
KGLD : now visible

Airfield :











YOU CAN JOIN US ON...

 
LOGIN :

Register | Disclaimer

   EN    FR    IT 

 









Legend :    VFR   Marginal VFR   IFR   Intensive IFR   Very Intensive IFR
Visi :
Ceiling :
>= 8 km
>= 3000ft
5 to 8 km
1000 to 3000 ft
1500m to 5 km
500 to 1000 ft
800 to 1500m
200 to 500 ft
< 800m
< 200 ft
Symbols :   Thunderstorms  Fog  Heavy snow  Heavy precipitations  Wind > 20 kt







- Airport Elevation : 3656 ft


KGLD - Renner Field-Goodland Municipal

CURRENT METAR :
  • 222353Z AUTO 16014KT 10SM CLR 26/17 A2992 RMK AO2 SLP090 T02610167 10283 20256 55012

EXPIRED METARs :
  • 222253Z AUTO 15017G23KT 10SM CLR 28/17 A2992 RMK AO2 SLP087 T02780172
  • 222153Z AUTO 16016KT 10SM CLR 28/18 A2994 RMK AO2 PK WND 16027/2126 SLP095 T02780178
  • 222053Z AUTO 17015G28KT 10SM CLR 27/18 A2996 RMK AO2 PK WND 15028/2045 SLP101 T02720178 58014

TAF KGLD
Valid from the 23 at 00:00 until the 24 at 00:00 UTC


222320Z 2300/2324 15017G24KT P6SM SCT035
FM230300 15012KT P6SM FEW040 SCT250
FM230900 15012KT P6SM SCT005 BKN015
FM231500 16020KT P6SM SCT200
No reported NOTAMs for that airfield.



MET'MAP, your aeronautical weather chart ! - Copyright ORBIFLY December 2007 - Disclaimer

ORBIFLY MET'MAP TEAM :

Programming & Development : Alexandra Zaïnal
Concept & Development : Baudouin d'Aumeries
Co-Development & Prog : Marc-Olivier Méhu
Technical & hardware support : Manuel Goepfert

Contact : metmap@orbifly.com




SOURCES & CREDITS :

   NOAA       Earth
Advisory